Home > Products > Valid Products > TAF

000
FTUS45 KVEF 250600 AAA
TAFLAS
TAF AMD
KLAS 250628Z 2506/2606 16015G23KT P6SM FEW150 SCT250
     FM250900 19011KT P6SM SCT150 SCT250
     FM251900 20012G20KT P6SM SCT100 BKN150=



000
FTUS45 KVEF 250600 AAA
TAFLAS
TAF AMD
KLAS 250628Z 2506/2606 16015G23KT P6SM FEW150 SCT250
     FM250900 19011KT P6SM SCT150 SCT250
     FM251900 20012G20KT P6SM SCT100 BKN150=



000
FTUS45 KVEF 250500
TAFEED
TAF
KEED 250532Z 2506/2606 18010KT P6SM BKN150
     FM251800 19015G25KT P6SM SCT120 BKN150
     FM260300 19010KT P6SM FEW120 BKN150=



000
FTUS45 KVEF 250500
TAFBIH
TAF
KBIH 250532Z 2506/2606 35007KT P6SM SKC
     FM252100 16010G18KT P6SM SKC=



000
FTUS45 KVEF 250500
TAFLAS
TAF
KLAS 250532Z 2506/2606 15010G18KT P6SM FEW150 SCT250
     FM250900 19011KT P6SM SCT150 SCT250
     FM251900 20012G20KT P6SM SCT100 BKN150=



000
FTUS45 KVEF 250500
TAFLAS
TAF
KLAS 250532Z 2506/2606 15010G18KT P6SM FEW150 SCT250
     FM250900 19011KT P6SM SCT150 SCT250
     FM251900 20012G20KT P6SM SCT100 BKN150=



000
FTUS45 KVEF 250500
TAFVGT
TAF
KVGT 250532Z 2506/2606 14008G16KT P6SM FEW150 SCT250
     FM250900 17006KT P6SM FEW150 SCT250
     FM251900 17010G20KT P6SM SCT100 BKN150=



000
FTUS45 KVEF 250500
TAFDAG
TAF
KDAG 250532Z 2506/2606 27012KT P6SM SCT250
     FM251800 06007KT P6SM SCT120 BKN150
     FM260100 26013KT P6SM SCT120 SCT150=



000
FTUS45 KVEF 250500 AAB
TAFLAS
TAF AMD
KLAS 250507Z 2505/2524 19008KT P6SM FEW150 SCT250
     FM250530 15010G16KT P6SM FEW150 SCT250
     FM250900 19011KT P6SM SCT150 SCT250
     FM251900 20012G20KT P6SM SCT100 BKN150=



000
FTUS45 KVEF 250500 AAB
TAFLAS
TAF AMD
KLAS 250507Z 2505/2524 19008KT P6SM FEW150 SCT250
     FM250530 15010G16KT P6SM FEW150 SCT250
     FM250900 19011KT P6SM SCT150 SCT250
     FM251900 20012G20KT P6SM SCT100 BKN150=



000
FTUS45 KVEF 250400 AAB
TAFEED
TAF AMD
KEED 250437Z 2505/2524 16015G25KT P6SM BKN150
     FM250600 18010KT P6SM BKN150
     FM250700 19012G20KT P6SM BKN150
     FM251800 19015G25KT P6SM SCT120 BKN150=



000
FTUS45 KVEF 250200 AAA
TAFLAS
TAF AMD
KLAS 250250Z 2503/2524 23013KT P6SM FEW150 SCT250
     FM250600 19011KT P6SM SCT150 SCT250
     FM251900 20012G20KT P6SM SCT100 BKN150=



000
FTUS45 KVEF 250200 AAA
TAFLAS
TAF AMD
KLAS 250250Z 2503/2524 23013KT P6SM FEW150 SCT250
     FM250600 19011KT P6SM SCT150 SCT250
     FM251900 20012G20KT P6SM SCT100 BKN150=



000
FTUS45 KVEF 250100 AAA
TAFEED
TAF AMD
KEED 250138Z 2502/2524 12015G25KT P6SM BKN150
     FM250400 18010KT P6SM BKN150
     FM250700 19012G20KT P6SM BKN150
     FM251800 19015G25KT P6SM SCT120 BKN150=



000
FTUS45 KVEF 242300
TAFLAS
TAF
KLAS 242333Z 2500/2524 23012G22KT P6SM FEW150 FEW250
     FM250300 19011KT P6SM SCT150
     FM251900 20012G20KT P6SM SCT100 BKN150=



000
FTUS45 KVEF 242300
TAFVGT
TAF
KVGT 242333Z 2500/2524 20012G20KT P6SM FEW150 FEW250
     FM250300 23008KT P6SM SCT150
     FM251900 17010G20KT P6SM SCT100 BKN150=



000
FTUS45 KVEF 242300
TAFEED
TAF
KEED 242333Z 2500/2524 19010G18KT P6SM SCT150
     FM250200 23011KT P6SM SCT150
     FM250700 19012G20KT P6SM BKN150
     FM251800 19015G25KT P6SM SCT120 BKN150=



000
FTUS45 KVEF 242300
TAFLAS
TAF
KLAS 242333Z 2500/2524 23012G22KT P6SM FEW150 FEW250
     FM250300 19011KT P6SM SCT150
     FM251900 20012G20KT P6SM SCT100 BKN150=



000
FTUS45 KVEF 242300
TAFBIH
TAF
KBIH 242333Z 2500/2524 16010G18KT P6SM SKC
     FM250300 17008KT P6SM SKC
     FM250600 33006KT P6SM SKC
     FM252100 16010G18KT P6SM SKC=



000
FTUS45 KVEF 242300
TAFDAG
TAF
KDAG 242333Z 2500/2524 09007KT P6SM FEW250
     FM250100 26012KT P6SM SCT250
     FM251800 06007KT P6SM SCT120 BKN150=



000
FTUS45 KVEF 242000 AAA
TAFLAS
TAF AMD
KLAS 242046Z 2421/2518 20012G22KT P6SM SCT150
     FM250300 20011KT P6SM SCT150
     FM251000 19010G20KT P6SM BKN150=



000
FTUS45 KVEF 242000 AAA
TAFLAS
TAF AMD
KLAS 242046Z 2421/2518 20012G22KT P6SM SCT150
     FM250300 20011KT P6SM SCT150
     FM251000 19010G20KT P6SM BKN150=



000
FTUS45 KVEF 241700
TAFLAS
TAF
KLAS 241720Z 2418/2518 17010KT P6SM FEW150
     FM242000 20012G22KT P6SM SCT150
     FM250300 20011KT P6SM SCT150
     FM251000 19010G20KT P6SM BKN150=



000
FTUS45 KVEF 241700
TAFLAS
TAF
KLAS 241720Z 2418/2518 17010KT P6SM FEW150
     FM242000 20012G22KT P6SM SCT150
     FM250300 20011KT P6SM SCT150
     FM251000 19010G20KT P6SM BKN150=



000
FTUS45 KVEF 241700
TAFEED
TAF
KEED 241720Z 2418/2518 VRB05KT P6SM FEW150
     FM242000 19010G18KT P6SM SCT150
     FM250200 23011KT P6SM SCT150
     FM250700 19015G25KT P6SM BKN150=



000
FTUS45 KVEF 241700
TAFBIH
TAF
KBIH 241720Z 2418/2518 32006KT P6SM SKC
     FM241900 16010G18KT P6SM SKC
     FM250300 17008KT P6SM SKC
     FM250600 33006KT P6SM SKC=



000
FTUS45 KVEF 241700
TAFVGT
TAF
KVGT 241720Z 2418/2518 14010KT P6SM FEW150
     FM242100 20012G20KT P6SM SCT150
     FM250300 23008KT P6SM SCT150
     FM251000 17010G20KT P6SM BKN150=



000
FTUS45 KVEF 241700
TAFDAG
TAF
KDAG 241720Z 2418/2518 31010KT P6SM FEW250
     FM250100 26012KT P6SM SCT250
     FM250800 27010KT P6SM BKN150=



000
FTUS45 KVEF 241400 AAA
TAFLAS
TAF AMD
KLAS 241438Z 2415/2512 16007KT P6SM FEW150
     FM242000 20012G22KT P6SM SCT150 SCT250
     FM250300 22010KT P6SM SCT150 BKN250=



000
FTUS45 KVEF 241400 AAA
TAFLAS
TAF AMD
KLAS 241438Z 2415/2512 16007KT P6SM FEW150
     FM242000 20012G22KT P6SM SCT150 SCT250
     FM250300 22010KT P6SM SCT150 BKN250=



000
FTUS45 KVEF 241100
TAFBIH
TAF
KBIH 241120Z 2412/2512 32006KT P6SM SKC
     FM241900 16010G18KT P6SM SKC
     FM250300 17008KT P6SM SKC
     FM250700 33006KT P6SM SKC=



000
FTUS45 KVEF 241100
TAFLAS
TAF
KLAS 241120Z 2412/2512 19010KT P6SM FEW150
     FM241700 16007KT P6SM FEW150
     FM242000 20012G22KT P6SM SCT150 SCT250
     FM250300 22010KT P6SM SCT150 BKN250=



000
FTUS45 KVEF 241100
TAFLAS
TAF
KLAS 241120Z 2412/2512 19010KT P6SM FEW150
     FM241700 16007KT P6SM FEW150
     FM242000 20012G22KT P6SM SCT150 SCT250
     FM250300 22010KT P6SM SCT150 BKN250=



000
FTUS45 KVEF 241100
TAFDAG
TAF
KDAG 241120Z 2412/2512 28013KT P6SM SKC
     FM241800 31010KT P6SM SCT250
     FM250200 26015KT P6SM BKN250=



000
FTUS45 KVEF 241100
TAFEED
TAF
KEED 241120Z 2412/2512 VRB05KT P6SM FEW150
     FM241900 19010G18KT P6SM SCT150
     FM250300 23010KT P6SM SCT150 BKN250=



000
FTUS45 KVEF 241100
TAFVGT
TAF
KVGT 241120Z 2412/2512 VRB05KT P6SM FEW150
     FM241800 15010KT P6SM FEW150
     FM242100 20012G20KT P6SM SCT150 SCT250
     FM250300 20007KT P6SM SCT150 BKN250=



000
FTUS45 KVEF 240800 AAA
TAFLAS
TAF AMD
KLAS 240846Z 2409/2506 19010KT P6SM FEW150
     FM241700 16007KT P6SM FEW150
     FM242000 20012G22KT P6SM SCT150 SCT250
     FM250300 22010KT P6SM SCT150 SCT250=



000
FTUS45 KVEF 240800 AAA
TAFLAS
TAF AMD
KLAS 240846Z 2409/2506 19010KT P6SM FEW150
     FM241700 16007KT P6SM FEW150
     FM242000 20012G22KT P6SM SCT150 SCT250
     FM250300 22010KT P6SM SCT150 SCT250=



000
FTUS45 KVEF 240500
TAFBIH
TAF
KBIH 240530Z 2406/2506 34006KT P6SM SKC
     FM241900 16010G18KT P6SM SKC=



000
FTUS45 KVEF 240500
TAFEED
TAF
KEED 240530Z 2406/2506 25011KT P6SM FEW250
     FM241000 VRB05KT P6SM FEW150
     FM241900 19010G18KT P6SM SCT150
     FM250300 23010KT P6SM SCT150=



000
FTUS45 KVEF 240500
TAFDAG
TAF
KDAG 240530Z 2406/2506 28010KT P6SM SKC
     FM241800 31010KT P6SM FEW250
     FM250200 26015KT P6SM FEW250=



000
FTUS45 KVEF 240500
TAFLAS
TAF
KLAS 240530Z 2406/2506 19009KT P6SM FEW150
     FM241700 16007KT P6SM FEW150
     FM242000 20012G22KT P6SM SCT150 SCT250
     FM250300 22010KT P6SM SCT150 SCT250=



000
FTUS45 KVEF 240500
TAFVGT
TAF
KVGT 240530Z 2406/2506 23006KT P6SM FEW150
     FM240700 31005KT P6SM FEW150
     FM241800 15010KT P6SM FEW150
     FM242100 20012G20KT P6SM SCT150 SCT250=



000
FTUS45 KVEF 240500
TAFLAS
TAF
KLAS 240530Z 2406/2506 19009KT P6SM FEW150
     FM241700 16007KT P6SM FEW150
     FM242000 20012G22KT P6SM SCT150 SCT250
     FM250300 22010KT P6SM SCT150 SCT250=



000
FTUS45 KVEF 240200 AAA
TAFLAS
TAF AMD
KLAS 240258Z 2403/2424 22012KT P6SM FEW150
     FM241000 19006KT P6SM FEW150
     FM241900 20012G22KT P6SM SCT150=



000
FTUS45 KVEF 240200 AAA
TAFVGT
TAF AMD
KVGT 240201Z 2402/2424 24008KT P6SM FEW150
     FM240700 31005KT P6SM FEW150
     FM241800 15010KT P6SM FEW150
     FM242000 20012G20KT P6SM SCT150=



000
FTUS45 KVEF 232300
TAFLAS
TAF
KLAS 232320Z 2400/2424 21010G20KT P6SM SCT150
     FM241000 19006KT P6SM FEW150
     FM241900 20012G22KT P6SM SCT150=



000
FTUS45 KVEF 232300
TAFEED
TAF
KEED 232320Z 2400/2424 21009KT P6SM FEW150
     FM240300 25009KT P6SM FEW150
     FM241000 VRB05KT P6SM FEW150
     FM241900 19010G18KT P6SM SCT150=



000
FTUS45 KVEF 232300
TAFVGT
TAF
KVGT 232320Z 2400/2424 20010G20KT P6SM SCT150
     FM240300 24008KT P6SM FEW150
     FM240700 31005KT P6SM FEW150
     FM241800 15010KT P6SM FEW150
     FM242000 20012G20KT P6SM SCT150=



000
FTUS45 KVEF 232300
TAFLAS
TAF
KLAS 232320Z 2400/2424 21010G20KT P6SM SCT150
     FM241000 19006KT P6SM FEW150
     FM241900 20012G22KT P6SM SCT150=



000
FTUS45 KVEF 232300
TAFDAG
TAF
KDAG 232320Z 2400/2424 30009KT P6SM SKC
     FM240200 24015KT P6SM SKC
     FM240500 28010KT P6SM SKC
     FM241800 31010KT P6SM SCT150=



000
FTUS45 KVEF 232300
TAFBIH
TAF
KBIH 232320Z 2400/2424 16012G22KT P6SM SKC
     FM240200 15010KT P6SM SKC
     FM240700 33006KT P6SM SKC
     FM241900 16010G18KT P6SM SKC=



000
FTUS45 KVEF 232000 AAA
TAFLAS
TAF AMD
KLAS 232047Z 2321/2418 16010G20KT P6SM FEW150
     FM232300 21010G20KT P6SM SCT150
     FM241000 19006KT P6SM SCT150=



000
FTUS45 KVEF 232000 AAA
TAFLAS
TAF AMD
KLAS 232047Z 2321/2418 16010G20KT P6SM FEW150
     FM232300 21010G20KT P6SM SCT150
     FM241000 19006KT P6SM SCT150=



000
FTUS45 KVEF 231700
TAFVGT
TAF
KVGT 231721Z 2318/2418 VRB05KT P6SM FEW150
     FM231900 15010KT P6SM FEW150
     FM240000 23010KT P6SM SCT150
     FM240700 31005KT P6SM SCT150=



000
FTUS45 KVEF 231700
TAFDAG
TAF
KDAG 231721Z 2318/2418 30009KT P6SM SKC
     FM240200 24015KT P6SM SKC
     FM240500 28010KT P6SM SKC=



000
FTUS45 KVEF 231700
TAFEED
TAF
KEED 231721Z 2318/2418 VRB05KT P6SM SCT150
     FM232000 21009KT P6SM SCT150
     FM240300 25009KT P6SM SCT150
     FM241000 VRB05KT P6SM SCT150=



000
FTUS45 KVEF 231700
TAFBIH
TAF
KBIH 231721Z 2318/2418 17008KT P6SM SKC
     FM231900 17012G22KT P6SM FEW110
     FM240200 15010KT P6SM FEW110
     FM240700 33006KT P6SM SKC=



000
FTUS45 KVEF 231700
TAFLAS
TAF
KLAS 231721Z 2318/2418 06007KT P6SM FEW150
     FM232300 21012KT P6SM SCT150
     FM241000 19006KT P6SM SCT150=



000
FTUS45 KVEF 231700
TAFLAS
TAF
KLAS 231721Z 2318/2418 06007KT P6SM FEW150
     FM232300 21012KT P6SM SCT150
     FM241000 19006KT P6SM SCT150=



000
FTUS45 KVEF 231400 AAA
TAFLAS
TAF AMD
KLAS 231435Z 2315/2412 VRB06KT P6SM SKC
     FM231600 10007KT P6SM SCT250
     FM232100 21012KT P6SM FEW150 SCT250=



000
FTUS45 KVEF 231400 AAA
TAFLAS
TAF AMD
KLAS 231435Z 2315/2412 VRB06KT P6SM SKC
     FM231600 10007KT P6SM SCT250
     FM232100 21012KT P6SM FEW150 SCT250=



000
FTUS45 KVEF 231100 RRA
TAFVGT
TAF
KVGT 231144Z 2312/2412 VRB04KT P6SM SKC
     FM231900 16010KT P6SM FEW150 SCT250
     FM232200 21010KT P6SM FEW150 SCT250
     FM240700 VRB05KT P6SM FEW150 SCT250=



000
FTUS45 KVEF 231100 RRA
TAFBIH
TAF
KBIH 231144Z 2312/2412 33006KT P6SM SKC
     FM231800 17012G22KT P6SM FEW110
     FM240200 16010KT P6SM SKC
     FM240700 33006KT P6SM SKC=



000
FTUS45 KVEF 231100 RRA
TAFDAG
TAF
KDAG 231144Z 2312/2412 27010KT P6SM SKC
     FM231700 30009KT P6SM SKC
     FM240200 25015KT P6SM SKC=



000
FTUS45 KVEF 231100 RRA
TAFEED
TAF
KEED 231144Z 2312/2412 VRB04KT P6SM SKC
     FM231900 21009KT P6SM FEW180 SCT250
     FM240300 24007KT P6SM SCT160 BKN250=



000
FTUS45 KVEF 231100 RRA
TAFLAS
TAF
KLAS 231144Z 2312/2412 21009KT P6SM SKC
     FM231600 10007KT P6SM SCT250
     FM232100 21012KT P6SM FEW150 SCT250=



000
FTUS45 KVEF 231100 RRA
TAFLAS
TAF
KLAS 231144Z 2312/2412 21009KT P6SM SKC
     FM231600 10007KT P6SM SCT250
     FM232100 21012KT P6SM FEW150 SCT250=



000
FTUS45 KVEF 230800 AAA
TAFLAS
TAF AMD
KLAS 230846Z 2309/2406 21009KT P6SM SKC
     FM231600 10007KT P6SM SCT250
     FM232100 21012KT P6SM FEW150 SCT250=



000
FTUS45 KVEF 230800 AAA
TAFLAS
TAF AMD
KLAS 230846Z 2309/2406 21009KT P6SM SKC
     FM231600 10007KT P6SM SCT250
     FM232100 21012KT P6SM FEW150 SCT250=



000
FTUS45 KVEF 230500
TAFLAS
TAF
KLAS 230520Z 2306/2406 22010KT P6SM SKC
     FM231600 10007KT P6SM SCT250
     FM232100 21012KT P6SM FEW150 SCT250=



000
FTUS45 KVEF 230500
TAFVGT
TAF
KVGT 230520Z 2306/2406 VRB04KT P6SM SKC
     FM231900 16010KT P6SM FEW150 SCT250
     FM232200 21010KT P6SM FEW150 SCT250=



000
FTUS45 KVEF 230500
TAFBIH
TAF
KBIH 230520Z 2306/2406 15009KT P6SM SKC
     FM230900 33006KT P6SM SKC
     FM231800 17012G20KT P6SM FEW110
     FM240200 16010KT P6SM SKC=



000
FTUS45 KVEF 230500
TAFEED
TAF
KEED 230520Z 2306/2406 25008KT P6SM SKC
     FM231200 VRB04KT P6SM FEW180 SCT250
     FM231900 21009KT P6SM FEW180 SCT250=



000
FTUS45 KVEF 230500
TAFLAS
TAF
KLAS 230520Z 2306/2406 22010KT P6SM SKC
     FM231600 10007KT P6SM SCT250
     FM232100 21012KT P6SM FEW150 SCT250=



000
FTUS45 KVEF 230500
TAFDAG
TAF
KDAG 230520Z 2306/2406 26012KT P6SM SKC
     FM231700 30009KT P6SM SKC
     FM240200 25015KT P6SM SKC=



000
FTUS45 KVEF 230200 AAB
TAFLAS
TAF AMD
KLAS 230300Z 2303/2324 21010KT P6SM SKC
     FM231600 10007KT P6SM SCT250
     FM232100 21012KT P6SM SCT250=



000
FTUS45 KVEF 230200 AAB
TAFLAS
TAF AMD
KLAS 230300Z 2303/2324 21010KT P6SM SKC
     FM231600 10007KT P6SM SCT250
     FM232100 21012KT P6SM SCT250=



000
FTUS45 KVEF 230100 AAA
TAFLAS
TAF AMD
KLAS 230122Z 2301/2324 21010G18KT P6SM SKC
     FM230300 21010KT P6SM SKC
     FM231600 10007KT P6SM SCT250
     FM232100 21012KT P6SM SCT250=



000
FTUS45 KVEF 230100 AAA
TAFLAS
TAF AMD
KLAS 230122Z 2301/2324 21010G18KT P6SM SKC
     FM230300 21010KT P6SM SKC
     FM231600 10007KT P6SM SCT250
     FM232100 21012KT P6SM SCT250=



000
FTUS45 KVEF 222300
TAFLAS
TAF
KLAS 222320Z 2300/2324 11008KT P6SM SKC
     FM230300 21010KT P6SM FEW250
     FM231600 10007KT P6SM SCT250
     FM232100 21012KT P6SM SCT250=



000
FTUS45 KVEF 222300
TAFVGT
TAF
KVGT 222320Z 2300/2324 15010KT P6SM SKC
     FM230300 23008KT P6SM FEW250
     FM230900 VRB04KT P6SM SCT250
     FM231900 16010KT P6SM SCT250=



000
FTUS45 KVEF 222300
TAFEED
TAF
KEED 222320Z 2300/2324 21008KT P6SM SKC
     FM230300 24008KT P6SM FEW250
     FM231200 VRB04KT P6SM FEW180 SCT250
     FM231900 21009KT P6SM FEW180 SCT250=



000
FTUS45 KVEF 222300
TAFDAG
TAF
KDAG 222320Z 2300/2324 31009KT P6SM SKC
     FM230200 26012KT P6SM SKC
     FM231700 30009KT P6SM SKC=



000
FTUS45 KVEF 222300
TAFLAS
TAF
KLAS 222320Z 2300/2324 11008KT P6SM SKC
     FM230300 21010KT P6SM FEW250
     FM231600 10007KT P6SM SCT250
     FM232100 21012KT P6SM SCT250=



000
FTUS45 KVEF 222300
TAFBIH
TAF
KBIH 222320Z 2300/2324 16016G25KT P6SM FEW110
     FM230300 17011KT P6SM SKC
     FM230900 33006KT P6SM SKC
     FM231800 17012G20KT P6SM FEW110=



000
FTUS45 KVEF 222100 AAA
TAFLAS
TAF AMD
KLAS 222101Z 2221/2318 15009KT P6SM SKC
     FM230200 21010KT P6SM FEW250
     FM231600 VRB05KT P6SM SCT250=



000
FTUS45 KVEF 222100 AAA
TAFLAS
TAF AMD
KLAS 222101Z 2221/2318 15009KT P6SM SKC
     FM230200 21010KT P6SM FEW250
     FM231600 VRB05KT P6SM SCT250=



000
FTUS45 KVEF 221700
TAFLAS
TAF
KLAS 221723Z 2218/2318 08008KT P6SM SKC
     FM222300 15009KT P6SM SKC
     FM230200 21010KT P6SM FEW250
     FM231600 VRB05KT P6SM SCT250=



000
FTUS45 KVEF 221700
TAFDAG
TAF
KDAG 221723Z 2218/2318 31009KT P6SM SKC
     FM230200 26012KT P6SM SCT250=



000
FTUS45 KVEF 221700
TAFVGT
TAF
KVGT 221723Z 2218/2318 15009KT P6SM SKC
     FM230300 23008KT P6SM FEW250
     FM230900 VRB04KT P6SM SCT250=



000
FTUS45 KVEF 221700
TAFLAS
TAF
KLAS 221723Z 2218/2318 08008KT P6SM SKC
     FM222300 15009KT P6SM SKC
     FM230200 21010KT P6SM FEW250
     FM231600 VRB05KT P6SM SCT250=



000
FTUS45 KVEF 221700
TAFEED
TAF
KEED 221723Z 2218/2318 VRB05KT P6SM SKC
     FM222000 20010KT P6SM SKC
     FM230300 24006KT P6SM FEW180 SCT250
     FM231200 VRB04KT P6SM SCT180 BKN250=



000
FTUS45 KVEF 221700
TAFBIH
TAF
KBIH 221723Z 2218/2318 16009KT P6SM SCT250
     FM221900 16015G24KT P6SM SCT250
     FM230300 17011KT P6SM FEW250
     FM230900 33006KT P6SM FEW250=



000
FTUS45 KVEF 221400 AAA
TAFLAS
TAF AMD
KLAS 221452Z 2215/2312 19007KT P6SM SKC
     FM221600 VRB05KT P6SM SKC
     FM221800 08007KT P6SM SKC
     FM230300 21010KT P6SM SCT250=



000
FTUS45 KVEF 221400 AAA
TAFLAS
TAF AMD
KLAS 221452Z 2215/2312 19007KT P6SM SKC
     FM221600 VRB05KT P6SM SKC
     FM221800 08007KT P6SM SKC
     FM230300 21010KT P6SM SCT250=



000
FTUS45 KVEF 221100
TAFLAS
TAF
KLAS 221123Z 2212/2312 19008KT P6SM SKC
     FM221500 VRB05KT P6SM SKC
     FM221800 08007KT P6SM SKC
     FM230300 21010KT P6SM SCT250=



000
FTUS45 KVEF 221100
TAFEED
TAF
KEED 221123Z 2212/2312 VRB05KT P6SM SKC
     FM222000 20010KT P6SM SKC
     FM230300 24006KT P6SM SCT250=



000
FTUS45 KVEF 221100
TAFVGT
TAF
KVGT 221123Z 2212/2312 VRB05KT P6SM SKC
     FM221800 13007KT P6SM SKC
     FM230300 23008KT P6SM SCT250
     FM230900 VRB03KT P6SM SCT250=



000
FTUS45 KVEF 221100
TAFDAG
TAF
KDAG 221123Z 2212/2312 27011KT P6SM SKC
     FM221700 31008KT P6SM SKC
     FM230200 26012KT P6SM SCT250=



000
FTUS45 KVEF 221100
TAFBIH
TAF
KBIH 221123Z 2212/2312 VRB05KT P6SM BKN250
     FM221800 16015G24KT P6SM SCT250
     FM230300 17011KT P6SM FEW250
     FM230900 33006KT P6SM FEW250=



000
FTUS45 KVEF 221100
TAFLAS
TAF
KLAS 221123Z 2212/2312 19008KT P6SM SKC
     FM221500 VRB05KT P6SM SKC
     FM221800 08007KT P6SM SKC
     FM230300 21010KT P6SM SCT250=



000
FTUS45 KVEF 220800 AAA
TAFLAS
TAF AMD
KLAS 220851Z 2209/2306 20008KT P6SM SKC
     FM221500 VRB05KT P6SM SKC
     FM221800 08007KT P6SM SKC
     FM230300 21010KT P6SM SCT250=



000
FTUS45 KVEF 220800 AAA
TAFLAS
TAF AMD
KLAS 220851Z 2209/2306 20008KT P6SM SKC
     FM221500 VRB05KT P6SM SKC
     FM221800 08007KT P6SM SKC
     FM230300 21010KT P6SM SCT250=



    US Dept of Commerce
    National Oceanic and Atmospheric Administration
    National Weather Service
    1325 East West Highway
    Silver Spring, MD 20910
    Page Author: NWS Internet Services Team
Disclaimer
Information Quality
Credits
Glossary
Privacy Policy
Freedom of Information Act (FOIA)
About Us
Career Opportunities